createdAt,value
2023-01-29T00:17:48.367Z,109.5
2023-01-29T01:31:05.911Z,108.7
2023-01-29T01:36:54.061Z,119.3
2023-01-29T01:42:44.130Z,103.1
2023-01-29T01:48:35.250Z,103.4
2023-01-29T01:54:25.535Z,103.3
2023-01-29T02:00:15.825Z,95.9
2023-01-29T02:06:09.624Z,94.6
2023-01-29T02:11:59.762Z,93.8
2023-01-29T02:17:51.532Z,95.2
2023-01-29T02:23:41.410Z,99.3
2023-01-29T02:29:33.257Z,96.8
2023-01-29T02:35:23.135Z,99.7
2023-01-29T02:41:13.184Z,100.8
2023-01-29T02:47:04.985Z,104.1
2023-01-29T02:52:55.142Z,100
2023-01-29T02:58:46.051Z,96.5
2023-01-29T03:04:37.948Z,101.3
2023-01-29T03:10:28.085Z,99.2
2023-01-29T03:16:18.024Z,100
2023-01-29T03:22:08.687Z,99.6
2023-01-29T03:27:59.247Z,93
2023-01-29T03:33:49.172Z,92.3
2023-01-29T03:39:41.185Z,89.4
2023-01-29T03:45:31.043Z,97.1
2023-01-29T03:51:21.610Z,92.8
2023-01-29T03:57:12.149Z,95.2
2023-01-29T04:03:02.934Z,90.8
2023-01-29T04:08:55.201Z,100.9
2023-01-29T04:14:44.753Z,97.5
2023-01-29T04:20:36.003Z,99.8
2023-01-29T04:26:25.830Z,101
2023-01-29T04:32:15.879Z,106.4
2023-01-29T04:38:04.322Z,106
2023-01-29T04:43:54.574Z,101.9
2023-01-29T04:49:44.917Z,103.1
2023-01-29T04:55:35.932Z,104.6
2023-01-29T05:01:26.865Z,105.7
2023-01-29T05:08:25.981Z,100.6
2023-01-29T05:14:15.139Z,109
2023-01-29T05:20:04.561Z,106.1
2023-01-29T05:25:55.205Z,104.5
2023-01-29T05:31:46.098Z,104.4
2023-01-29T05:37:36.796Z,106.4
2023-01-29T05:43:28.852Z,103.8
2023-01-29T05:49:19.445Z,105.3
2023-01-29T05:55:07.352Z,106.9
2023-01-29T06:00:57.790Z,102.1
2023-01-29T06:06:47.607Z,101.3
2023-01-29T06:12:37.498Z,102.1
2023-01-29T06:18:27.464Z,97.8
2023-01-29T06:24:18.247Z,94
2023-01-29T06:30:08.689Z,95.3
2023-01-29T06:35:59.628Z,93.2
2023-01-29T06:41:50.415Z,88.5
2023-01-29T06:47:40.114Z,91.6
2023-01-29T06:53:30.738Z,90
2023-01-29T06:59:22.101Z,90.4
2023-01-29T07:05:13.856Z,227.6
2023-01-29T07:11:04.143Z,116
2023-01-29T07:16:54.858Z,118.6
2023-01-29T07:22:44.893Z,105.1
2023-01-29T07:28:39.637Z,94
2023-01-29T07:34:30.281Z,97.8
2023-01-29T07:40:22.472Z,97.5
2023-01-29T07:47:30.372Z,93.8
2023-01-29T07:53:24.922Z,93.6
2023-01-29T07:59:24.101Z,96.6
2023-01-29T08:12:11.521Z,100.6
2023-01-29T08:24:28.188Z,96
2023-01-29T08:30:43.723Z,96.1
2023-01-29T08:36:36.426Z,92.5
2023-01-29T08:42:28.030Z,91.4
2023-01-29T08:48:22.134Z,88.5
2023-01-29T08:54:44.315Z,88.1
2023-01-29T09:00:36.940Z,83.2
2023-01-29T09:06:32.901Z,85
2023-01-29T09:12:33.738Z,80.4
2023-01-29T09:18:55.747Z,79.3
2023-01-29T09:24:55.783Z,80.1
2023-01-29T09:37:20.378Z,66.9
2023-01-29T09:43:45.577Z,67.6
2023-01-29T09:49:53.221Z,70.8
2023-01-29T09:55:43.071Z,64.9
2023-01-29T10:01:35.617Z,64.2
2023-01-29T10:07:39.202Z,139.1
2023-01-29T10:13:46.608Z,61
2023-01-29T10:32:26.485Z,50.7
2023-01-29T10:38:34.225Z,56.3
2023-01-29T10:50:41.951Z,54.2
2023-01-29T11:02:54.887Z,47
2023-01-29T11:09:06.700Z,48.9
2023-01-29T11:15:08.969Z,52.7
2023-01-29T11:21:12.678Z,50.7
2023-01-29T11:27:44.934Z,54.1
2023-01-29T11:39:57.181Z,53.8
2023-01-29T11:45:59.385Z,58.3
2023-01-29T11:52:11.161Z,58.8
2023-01-29T11:58:10.046Z,59.7
2023-01-29T12:10:22.146Z,59.2
2023-01-29T12:16:47.533Z,60.7
2023-01-29T12:22:38.083Z,58.4
2023-01-29T12:28:29.374Z,58.6
2023-01-29T12:34:19.305Z,57.8
2023-01-29T12:40:12.960Z,55.9
2023-01-29T12:46:04.873Z,58.8
2023-01-29T12:51:55.952Z,54.7
2023-01-29T12:57:47.212Z,53.8
2023-01-29T13:03:37.366Z,52.6
2023-01-29T13:09:30.223Z,57.4
2023-01-29T13:15:23.828Z,54.9
2023-01-29T13:21:17.009Z,54.9
2023-01-29T13:27:08.531Z,52.5
2023-01-29T13:33:09.351Z,51.9
2023-01-29T13:39:08.024Z,50.6
2023-01-29T13:45:01.053Z,50.5
2023-01-29T13:50:51.273Z,50.5
2023-01-29T13:56:41.964Z,53.6
2023-01-29T14:02:35.319Z,50.2
2023-01-29T14:08:27.500Z,50
2023-01-29T14:14:18.872Z,49.4
2023-01-29T14:20:13.580Z,49.2
2023-01-29T14:26:04.228Z,47.1
2023-01-29T14:31:55.056Z,48.5
2023-01-29T14:38:57.080Z,46.8
2023-01-29T14:44:45.615Z,46.1
2023-01-29T14:50:35.977Z,45.9
2023-01-29T14:56:27.318Z,51.6
2023-01-29T15:02:28.134Z,46.9
2023-01-29T15:08:18.460Z,45.3
2023-01-29T15:14:10.419Z,44.5
2023-01-29T15:20:00.181Z,45.3
2023-01-29T15:25:51.484Z,46.5
2023-01-29T15:31:45.712Z,48.2
2023-01-29T15:37:37.230Z,49.7
2023-01-29T15:43:29.956Z,49.9
2023-01-29T15:49:20.765Z,53.6
2023-01-29T15:55:09.873Z,57.5
2023-01-29T16:00:58.787Z,54.3
2023-01-29T16:06:48.560Z,54.5
2023-01-29T16:12:36.913Z,45
2023-01-29T16:18:25.439Z,46
2023-01-29T16:24:14.287Z,45.1
2023-01-29T16:31:12.489Z,44.7
2023-01-29T16:36:59.945Z,45
2023-01-29T16:42:48.897Z,44.5
2023-01-29T16:48:37.338Z,43.1
2023-01-29T16:54:26.200Z,43.4
2023-01-29T17:00:15.055Z,43.6
2023-01-29T17:06:03.502Z,47.1
2023-01-29T17:11:52.440Z,50.6
2023-01-29T17:17:41.369Z,52.9
2023-01-29T17:23:32.101Z,54.7
2023-01-29T17:29:21.394Z,59.9
2023-01-29T17:35:10.276Z,64.4
2023-01-29T17:40:59.439Z,69.4
2023-01-29T17:46:48.260Z,69
2023-01-29T17:52:36.944Z,65.4
2023-01-29T17:58:25.547Z,64.6
2023-01-29T18:04:14.438Z,66.4
2023-01-29T18:10:03.498Z,61.4
2023-01-29T18:15:53.007Z,56.3
2023-01-29T18:21:42.851Z,55.4
2023-01-29T18:27:32.943Z,55.6
2023-01-29T18:33:23.294Z,56.3
2023-01-29T18:39:14.334Z,50.5
2023-01-29T18:45:04.823Z,61.9
2023-01-29T18:50:54.736Z,50.8
2023-01-29T18:58:38.488Z,57.3
2023-01-29T19:04:24.492Z,54.6
2023-01-29T19:10:12.526Z,50.1
2023-01-29T19:16:00.705Z,48.3
2023-01-29T19:21:48.785Z,52.5
2023-01-29T19:27:36.940Z,49.3
2023-01-29T19:33:26.533Z,50.2
2023-01-29T19:39:14.916Z,50.2
2023-01-29T19:45:03.811Z,47.5
2023-01-29T19:50:53.633Z,48.2
2023-01-29T19:56:49.381Z,51.5
2023-01-29T20:02:40.582Z,48.7
2023-01-29T20:08:31.921Z,46
2023-01-29T20:14:22.025Z,49.5
2023-01-29T20:20:12.187Z,48.7
2023-01-29T20:26:04.859Z,49.6
2023-01-29T20:31:59.007Z,52.4
2023-01-29T20:37:47.866Z,47.4
2023-01-29T20:43:41.319Z,46.1
2023-01-29T20:49:34.734Z,49.1
2023-01-29T20:55:25.233Z,48.4
2023-01-29T21:01:16.881Z,45.6
2023-01-29T21:07:07.828Z,46.7
2023-01-29T21:12:58.619Z,47.3
2023-01-29T21:18:49.529Z,46.6
2023-01-29T21:24:41.226Z,48.8
2023-01-29T21:30:31.333Z,47.9
2023-01-29T21:36:21.806Z,47.5
2023-01-29T21:42:12.708Z,47.3
2023-01-29T21:48:04.765Z,46.4
2023-01-29T21:53:54.802Z,44.2
2023-01-29T21:59:51.375Z,43.9
2023-01-29T22:05:41.435Z,45.7
2023-01-29T22:11:31.456Z,46.6
2023-01-29T22:17:22.309Z,44
2023-01-29T22:23:10.718Z,43.5
2023-01-29T22:29:01.093Z,42.7
2023-01-29T22:34:51.654Z,44.8
2023-01-29T22:40:41.360Z,44.7
2023-01-29T22:46:32.284Z,43.4
2023-01-29T22:52:23.142Z,45.7
2023-01-29T22:58:14.385Z,42.5
2023-01-29T23:04:04.005Z,44.7
2023-01-29T23:09:54.999Z,42.5
2023-01-29T23:15:46.398Z,41.9
2023-01-29T23:21:36.832Z,44.4
2023-01-29T23:27:27.698Z,42.5
2023-01-29T23:33:18.225Z,43.6
2023-01-29T23:39:08.890Z,43.6
2023-01-29T23:44:59.650Z,42.6
2023-01-29T23:50:57.917Z,41.3
2023-01-29T23:56:48.197Z,40.6
